createdAt,value
2023-05-21T00:00:30.437Z,54.41
2023-05-21T00:03:17.929Z,54.34
2023-05-21T00:05:47.153Z,54.33
2023-05-21T00:08:14.583Z,54.42
2023-05-21T00:10:41.740Z,54.40
2023-05-21T00:13:09.556Z,54.40
2023-05-21T00:15:37.192Z,54.30
2023-05-21T00:18:05.366Z,54.50
2023-05-21T00:20:32.971Z,54.34
2023-05-21T00:23:02.944Z,54.41
2023-05-21T00:25:30.115Z,54.37
2023-05-21T00:27:57.326Z,54.47
2023-05-21T00:30:24.831Z,54.47
2023-05-21T00:32:52.011Z,54.60
2023-05-21T00:35:19.722Z,54.40
2023-05-21T00:37:47.812Z,54.40
2023-05-21T00:40:15.740Z,54.50
2023-05-21T00:42:48.103Z,54.44
2023-05-21T00:45:15.289Z,54.57
2023-05-21T00:47:44.175Z,54.74
2023-05-21T00:50:12.247Z,54.64
2023-05-21T00:52:42.403Z,54.54
2023-05-21T00:55:11.163Z,54.58
2023-05-21T00:57:39.895Z,54.63
2023-05-21T01:00:09.068Z,54.68
2023-05-21T01:02:38.225Z,54.72
2023-05-21T01:05:06.874Z,54.55
2023-05-21T01:07:36.119Z,54.82
2023-05-21T01:10:06.298Z,54.80
2023-05-21T01:12:34.348Z,54.72
2023-05-21T01:15:04.227Z,54.72
2023-05-21T01:17:32.177Z,54.63
2023-05-21T01:20:00.311Z,54.69
2023-05-21T01:22:32.677Z,54.79
2023-05-21T01:25:02.958Z,54.68
2023-05-21T01:27:30.127Z,54.81
2023-05-21T01:29:57.593Z,54.75
2023-05-21T01:32:42.566Z,54.81
2023-05-21T01:35:30.681Z,54.89
2023-05-21T01:38:04.034Z,54.85
2023-05-21T01:40:45.108Z,54.98
2023-05-21T01:43:14.022Z,54.95
2023-05-21T01:45:44.277Z,54.84
2023-05-21T01:48:13.103Z,54.92
2023-05-21T01:50:41.870Z,54.80
2023-05-21T01:53:09.088Z,54.90
2023-05-21T01:55:39.753Z,54.78
2023-05-21T01:58:07.402Z,55.03
2023-05-21T02:00:34.722Z,54.86
2023-05-21T02:03:02.075Z,54.94
2023-05-21T02:05:29.403Z,55.02
2023-05-21T02:07:57.201Z,55.12
2023-05-21T02:10:24.381Z,54.92
2023-05-21T02:12:51.565Z,54.88
2023-05-21T02:15:19.367Z,54.92
2023-05-21T02:17:47.073Z,54.87
2023-05-21T02:20:14.667Z,55.15
2023-05-21T02:22:44.573Z,54.95
2023-05-21T02:25:14.534Z,54.95
2023-05-21T02:27:43.160Z,54.99
2023-05-21T02:30:12.344Z,55.09
2023-05-21T02:32:43.237Z,55.08
2023-05-21T02:35:13.320Z,54.95
2023-05-21T02:37:41.375Z,55.05
2023-05-21T02:40:10.227Z,54.96
2023-05-21T02:42:40.212Z,55.14
2023-05-21T02:45:12.928Z,54.91
2023-05-21T02:47:42.190Z,55.10
2023-05-21T02:50:09.729Z,55.14
2023-05-21T02:52:43.265Z,55.13
2023-05-21T02:55:10.736Z,55.16
2023-05-21T02:57:38.041Z,55.06
2023-05-21T03:00:09.399Z,55.16
2023-05-21T03:02:37.514Z,55.19
2023-05-21T03:05:05.334Z,55.18
2023-05-21T03:07:33.969Z,55.09
2023-05-21T03:10:01.629Z,55.08
2023-05-21T03:12:29.068Z,55.32
2023-05-21T03:14:56.582Z,55.13
2023-05-21T03:17:23.965Z,55.21
2023-05-21T03:19:52.148Z,55.34
2023-05-21T03:22:20.166Z,55.26
2023-05-21T03:24:47.471Z,55.11
2023-05-21T03:27:15.524Z,55.33
2023-05-21T03:29:43.920Z,55.18
2023-05-21T03:32:11.379Z,55.34
2023-05-21T03:34:38.555Z,55.23
2023-05-21T03:37:05.793Z,55.37
2023-05-21T03:39:33.148Z,55.29
2023-05-21T03:42:00.423Z,55.39
2023-05-21T03:44:35.812Z,55.17
2023-05-21T03:47:16.861Z,55.29
2023-05-21T03:49:44.022Z,55.46
2023-05-21T03:52:11.278Z,55.36
2023-05-21T03:54:38.484Z,55.22
2023-05-21T03:57:07.588Z,55.47
2023-05-21T03:59:35.099Z,55.38
2023-05-21T04:02:02.373Z,55.20
2023-05-21T04:04:29.817Z,55.35
2023-05-21T04:06:57.121Z,55.32
2023-05-21T04:09:24.461Z,55.40
2023-05-21T04:11:52.388Z,55.55
2023-05-21T04:14:19.658Z,55.41
2023-05-21T04:16:49.323Z,55.54
2023-05-21T04:19:16.687Z,55.45
2023-05-21T04:21:45.159Z,55.37
2023-05-21T04:24:12.793Z,55.49
2023-05-21T04:26:51.474Z,55.52
2023-05-21T04:29:21.264Z,55.49
2023-05-21T04:31:49.867Z,55.65
2023-05-21T04:34:18.054Z,55.37
2023-05-21T04:36:46.136Z,55.69
2023-05-21T04:39:14.677Z,55.66
2023-05-21T04:41:41.869Z,55.70
2023-05-21T04:44:09.873Z,55.61
2023-05-21T04:46:39.667Z,55.57
2023-05-21T04:49:10.406Z,55.60
2023-05-21T04:51:40.078Z,55.62
2023-05-21T04:54:07.814Z,55.72
2023-05-21T04:56:35.147Z,55.58
2023-05-21T04:59:05.198Z,55.57
2023-05-21T05:01:35.487Z,55.65
2023-05-21T05:04:02.968Z,55.64
2023-05-21T05:06:31.293Z,55.64
2023-05-21T05:08:58.694Z,55.56
2023-05-21T05:11:26.885Z,55.69
2023-05-21T05:13:54.437Z,55.60
2023-05-21T05:16:25.766Z,55.63
2023-05-21T05:18:53.647Z,55.65
2023-05-21T05:21:22.968Z,55.62
2023-05-21T05:23:50.299Z,55.61
2023-05-21T05:26:18.501Z,55.67
2023-05-21T05:28:46.408Z,55.69
2023-05-21T05:31:13.804Z,55.43
2023-05-21T05:33:43.100Z,55.43
2023-05-21T05:36:11.686Z,55.47
2023-05-21T05:38:39.011Z,55.51
2023-05-21T05:41:06.340Z,55.48
2023-05-21T05:43:33.532Z,55.39
2023-05-21T05:46:01.119Z,55.47
2023-05-21T05:48:28.916Z,55.48
2023-05-21T05:50:57.311Z,55.43
2023-05-21T05:53:25.513Z,55.44
2023-05-21T05:55:53.306Z,55.35
2023-05-21T05:58:20.720Z,55.32
2023-05-21T06:01:06.253Z,55.26
2023-05-21T06:03:33.778Z,55.29
2023-05-21T06:06:11.243Z,55.10
2023-05-21T06:08:40.679Z,55.21
2023-05-21T06:11:08.066Z,55.25
2023-05-21T06:13:35.682Z,55.18
2023-05-21T06:16:04.032Z,55.04
2023-05-21T06:18:31.192Z,55.06
2023-05-21T06:20:58.344Z,54.97
2023-05-21T06:23:25.707Z,54.88
2023-05-21T06:25:53.328Z,54.90
2023-05-21T06:28:20.737Z,54.74
2023-05-21T06:30:48.575Z,54.79
2023-05-21T06:33:16.340Z,54.63
2023-05-21T06:35:44.385Z,54.69
2023-05-21T06:38:11.630Z,54.70
2023-05-21T06:40:38.831Z,54.46
2023-05-21T06:43:06.226Z,54.53
2023-05-21T06:45:39.704Z,54.44
2023-05-21T06:48:21.261Z,54.38
2023-05-21T06:50:48.660Z,54.16
2023-05-21T06:53:16.597Z,54.10
2023-05-21T06:55:45.529Z,54.09
2023-05-21T06:58:21.582Z,53.91
2023-05-21T07:00:49.124Z,54.12
2023-05-21T07:03:17.423Z,54.01
2023-05-21T07:05:44.797Z,53.72
2023-05-21T07:08:12.353Z,53.83
2023-05-21T07:10:40.009Z,53.72
2023-05-21T07:13:08.007Z,53.58
2023-05-21T07:15:35.432Z,53.45
2023-05-21T07:18:03.692Z,53.42
2023-05-21T07:20:31.030Z,53.36
2023-05-21T07:23:01.059Z,53.14
2023-05-21T07:25:28.428Z,53.05
2023-05-21T07:27:55.646Z,53.19
2023-05-21T07:30:22.792Z,52.96
2023-05-21T07:32:50.194Z,52.82
2023-05-21T07:35:18.018Z,52.80
2023-05-21T07:37:46.459Z,52.71
2023-05-21T07:40:14.621Z,52.72
2023-05-21T07:42:42.418Z,52.57
2023-05-21T07:45:10.048Z,52.41
2023-05-21T07:47:40.923Z,52.30
2023-05-21T07:50:08.368Z,52.30
2023-05-21T07:52:35.897Z,52.11
2023-05-21T07:55:03.176Z,51.97
2023-05-21T07:57:32.073Z,51.93
2023-05-21T08:00:13.215Z,51.81
2023-05-21T08:02:47.220Z,51.64
2023-05-21T08:05:16.467Z,51.60
2023-05-21T08:07:44.105Z,51.32
2023-05-21T08:10:11.454Z,51.41
2023-05-21T08:12:38.630Z,51.24
2023-05-21T08:15:07.408Z,51.07
2023-05-21T08:17:37.906Z,51.10
2023-05-21T08:20:05.953Z,51.03
2023-05-21T08:22:34.567Z,50.91
2023-05-21T08:25:01.780Z,50.73
2023-05-21T08:27:28.968Z,50.71
2023-05-21T08:29:56.240Z,50.51
2023-05-21T08:32:23.417Z,50.38
2023-05-21T08:34:50.770Z,50.24
2023-05-21T08:37:32.375Z,49.95
2023-05-21T08:40:13.716Z,49.81
2023-05-21T08:42:49.997Z,49.94
2023-05-21T08:45:22.923Z,49.83
2023-05-21T08:47:58.212Z,49.68
2023-05-21T08:50:27.974Z,49.49
2023-05-21T08:52:59.030Z,49.34
2023-05-21T08:55:27.129Z,49.11
2023-05-21T08:57:55.242Z,49.07
2023-05-21T09:00:24.340Z,49.09
2023-05-21T09:02:54.715Z,48.86
2023-05-21T09:05:22.981Z,48.67
2023-05-21T09:08:09.246Z,48.37
2023-05-21T09:10:52.892Z,48.61
2023-05-21T09:13:25.128Z,48.54
2023-05-21T09:15:52.687Z,48.26
2023-05-21T09:18:20.506Z,48.29
2023-05-21T09:20:56.646Z,48.18
2023-05-21T09:23:24.607Z,48.13
2023-05-21T09:25:52.722Z,47.92
2023-05-21T09:28:25.520Z,48.01
2023-05-21T09:30:54.457Z,47.81
2023-05-21T09:33:26.460Z,47.78
2023-05-21T09:35:53.781Z,47.79
2023-05-21T09:38:25.274Z,47.60
2023-05-21T09:40:56.737Z,47.29
2023-05-21T09:43:25.367Z,47.24
2023-05-21T09:45:55.386Z,46.86
2023-05-21T09:48:37.963Z,46.91
2023-05-21T09:51:14.906Z,46.71
2023-05-21T09:53:48.399Z,46.66
2023-05-21T09:56:15.721Z,46.56
2023-05-21T09:58:43.983Z,46.46
2023-05-21T10:01:11.481Z,46.26
2023-05-21T10:03:41.286Z,46.22
2023-05-21T10:06:10.246Z,46.00
2023-05-21T10:08:45.633Z,45.88
2023-05-21T10:11:13.653Z,45.68
2023-05-21T10:13:45.575Z,45.88
2023-05-21T10:16:13.536Z,45.95
2023-05-21T10:18:42.540Z,45.73
2023-05-21T10:21:10.101Z,45.60
2023-05-21T10:23:38.808Z,45.40
2023-05-21T10:26:08.178Z,45.23
2023-05-21T10:28:36.669Z,45.09
2023-05-21T10:31:04.624Z,44.96
2023-05-21T10:33:32.172Z,45.09
2023-05-21T10:36:00.542Z,44.66
2023-05-21T10:38:29.360Z,44.69
2023-05-21T10:40:57.862Z,44.57
2023-05-21T10:44:10.170Z,44.39
2023-05-21T10:47:09.737Z,44.53
2023-05-21T10:50:29.447Z,44.38
2023-05-21T10:53:20.244Z,44.13
2023-05-21T10:56:06.801Z,43.99
2023-05-21T10:58:43.135Z,43.99
2023-05-21T11:01:11.580Z,43.91
2023-05-21T11:03:39.422Z,43.85
2023-05-21T11:06:06.660Z,43.87
2023-05-21T11:08:36.338Z,43.55
2023-05-21T11:11:04.552Z,43.48
2023-05-21T11:13:51.593Z,43.43
2023-05-21T11:16:21.377Z,43.41
2023-05-21T11:18:57.403Z,43.36
2023-05-21T11:21:28.624Z,43.11
2023-05-21T11:23:59.379Z,43.11
2023-05-21T11:26:28.621Z,43.10
2023-05-21T11:29:04.664Z,42.82
2023-05-21T11:31:40.161Z,42.81
2023-05-21T11:34:22.347Z,42.84
2023-05-21T11:36:50.228Z,42.71
2023-05-21T11:39:27.810Z,42.64
2023-05-21T11:42:04.369Z,42.58
2023-05-21T11:44:46.009Z,42.69
2023-05-21T11:47:18.738Z,42.63
2023-05-21T11:49:46.564Z,42.36
2023-05-21T11:52:14.841Z,42.08
2023-05-21T11:54:51.379Z,41.97
2023-05-21T11:57:19.703Z,42.07
2023-05-21T11:59:47.863Z,42.14
2023-05-21T12:02:17.192Z,41.87
2023-05-21T12:04:46.939Z,41.84
2023-05-21T12:07:15.884Z,41.68
2023-05-21T12:09:48.264Z,41.23
2023-05-21T12:12:17.953Z,41.29
2023-05-21T12:14:46.701Z,41.30
2023-05-21T12:17:19.115Z,41.21
2023-05-21T12:19:47.164Z,41.03
2023-05-21T12:22:17.571Z,41.19
2023-05-21T12:24:45.426Z,41.09
2023-05-21T12:27:13.631Z,41.02
2023-05-21T12:29:45.169Z,40.90
2023-05-21T12:32:14.157Z,40.81
2023-05-21T12:34:46.642Z,40.88
2023-05-21T12:37:27.813Z,40.65
2023-05-21T12:39:58.280Z,40.67
2023-05-21T12:42:27.546Z,40.69
2023-05-21T12:44:54.703Z,40.34
2023-05-21T12:47:26.761Z,40.45
2023-05-21T12:49:58.046Z,40.28
2023-05-21T12:52:27.347Z,40.09
2023-05-21T12:54:59.012Z,39.96
2023-05-21T12:57:28.432Z,39.98
2023-05-21T12:59:59.850Z,40.00
2023-05-21T13:02:29.582Z,39.80
2023-05-21T13:05:01.481Z,39.75
2023-05-21T13:07:30.038Z,39.89
2023-05-21T13:09:58.009Z,39.71
2023-05-21T13:12:26.844Z,39.59
2023-05-21T13:14:56.450Z,39.38
2023-05-21T13:17:26.431Z,39.44
2023-05-21T13:20:09.562Z,39.16
2023-05-21T13:22:46.944Z,39.16
2023-05-21T13:25:16.959Z,39.27
2023-05-21T13:27:44.692Z,39.09
2023-05-21T13:30:12.430Z,39.01
2023-05-21T13:32:41.000Z,38.87
2023-05-21T13:35:10.097Z,38.75
2023-05-21T13:37:37.534Z,38.79
2023-05-21T13:40:06.505Z,38.75
2023-05-21T13:42:34.629Z,38.62
2023-05-21T13:45:01.833Z,38.71
2023-05-21T13:47:29.235Z,38.57
2023-05-21T13:49:56.327Z,38.36
2023-05-21T13:52:23.493Z,38.55
2023-05-21T13:54:50.718Z,38.47
2023-05-21T13:57:18.323Z,38.40
2023-05-21T13:59:45.529Z,38.29
2023-05-21T14:02:12.765Z,38.03
2023-05-21T14:04:39.985Z,37.87
2023-05-21T14:07:07.240Z,38.00
2023-05-21T14:09:34.946Z,38.02
2023-05-21T14:12:03.486Z,37.84
2023-05-21T14:14:32.383Z,37.71
2023-05-21T14:16:59.583Z,37.79
2023-05-21T14:19:26.973Z,37.70
2023-05-21T14:21:54.467Z,37.70
2023-05-21T14:24:21.582Z,37.62
2023-05-21T14:26:48.764Z,37.51
2023-05-21T14:29:15.997Z,37.39
2023-05-21T14:31:43.205Z,37.45
2023-05-21T14:34:10.453Z,37.39
2023-05-21T14:36:37.695Z,37.31
2023-05-21T14:39:04.886Z,37.13
2023-05-21T14:41:32.178Z,37.16
2023-05-21T14:43:59.375Z,37.02
2023-05-21T14:46:26.957Z,37.17
2023-05-21T14:48:55.537Z,37.02
2023-05-21T14:51:22.731Z,36.78
2023-05-21T14:53:50.119Z,36.88
2023-05-21T14:56:17.534Z,36.75
2023-05-21T14:58:44.717Z,36.87
2023-05-21T15:01:12.055Z,36.82
2023-05-21T15:03:39.275Z,36.76
2023-05-21T15:06:06.503Z,36.56
2023-05-21T15:08:33.720Z,36.55
2023-05-21T15:11:00.874Z,36.53
2023-05-21T15:13:28.118Z,36.45
2023-05-21T15:15:55.381Z,36.39
2023-05-21T15:18:22.521Z,36.33
2023-05-21T15:20:49.793Z,36.32
2023-05-21T15:23:17.965Z,36.19
2023-05-21T15:25:45.956Z,36.21
2023-05-21T15:28:13.305Z,36.27
2023-05-21T15:30:40.599Z,36.08
2023-05-21T15:33:07.769Z,36.17
2023-05-21T15:35:36.688Z,36.25
2023-05-21T15:38:04.268Z,36.14
2023-05-21T15:40:32.344Z,36.03
2023-05-21T15:42:59.605Z,35.95
2023-05-21T15:45:26.753Z,35.96
2023-05-21T15:47:54.029Z,36.06
2023-05-21T15:50:21.199Z,35.90
2023-05-21T15:52:49.029Z,35.94
2023-05-21T15:55:17.517Z,35.84
2023-05-21T15:57:44.644Z,35.72
2023-05-21T16:00:12.645Z,35.92
2023-05-21T16:02:41.966Z,35.80
2023-05-21T16:05:09.818Z,35.77
2023-05-21T16:07:38.384Z,35.62
2023-05-21T16:10:08.424Z,35.84
2023-05-21T16:12:35.545Z,35.67
2023-05-21T16:15:02.757Z,35.89
2023-05-21T16:17:30.000Z,35.77
2023-05-21T16:19:57.421Z,35.70
2023-05-21T16:22:25.175Z,35.62
2023-05-21T16:24:52.297Z,35.74
2023-05-21T16:27:19.783Z,35.77
2023-05-21T16:29:47.037Z,35.80
2023-05-21T16:32:14.450Z,35.64
2023-05-21T16:34:41.820Z,35.70
2023-05-21T16:37:09.932Z,35.59
2023-05-21T16:39:37.579Z,35.53
2023-05-21T16:42:05.016Z,35.42
2023-05-21T16:44:32.428Z,35.45
2023-05-21T16:47:00.249Z,35.33
2023-05-21T16:49:28.047Z,35.40
2023-05-21T16:51:55.203Z,35.26
2023-05-21T16:54:22.390Z,35.34
2023-05-21T16:56:49.570Z,35.22
2023-05-21T16:59:16.733Z,35.33
2023-05-21T17:01:43.972Z,35.16
2023-05-21T17:04:11.174Z,35.19
2023-05-21T17:06:38.346Z,35.33
2023-05-21T17:09:05.538Z,35.30
2023-05-21T17:11:32.735Z,35.26
2023-05-21T17:13:59.928Z,35.24
2023-05-21T17:16:27.207Z,35.33
2023-05-21T17:18:54.273Z,35.37
2023-05-21T17:21:21.607Z,35.30
2023-05-21T17:23:48.826Z,35.41
2023-05-21T17:26:16.296Z,35.40
2023-05-21T17:28:43.927Z,35.29
2023-05-21T17:31:11.322Z,35.31
2023-05-21T17:33:39.566Z,35.33
2023-05-21T17:36:06.890Z,35.35
2023-05-21T17:38:34.095Z,35.40
2023-05-21T17:41:01.378Z,35.32
2023-05-21T17:43:28.654Z,35.31
2023-05-21T17:45:55.900Z,35.33
2023-05-21T17:48:23.273Z,35.37
2023-05-21T17:50:51.177Z,35.45
2023-05-21T17:53:18.378Z,35.40
2023-05-21T17:55:45.535Z,35.47
2023-05-21T17:58:12.711Z,35.44
2023-05-21T18:00:39.928Z,35.49
2023-05-21T18:03:07.108Z,35.54
2023-05-21T18:05:34.608Z,35.49
2023-05-21T18:08:02.913Z,35.48
2023-05-21T18:10:30.218Z,35.60
2023-05-21T18:12:57.365Z,35.74
2023-05-21T18:15:24.547Z,35.73
2023-05-21T18:17:51.735Z,35.65
2023-05-21T18:20:18.966Z,35.82
2023-05-21T18:22:46.192Z,35.81
2023-05-21T18:25:13.435Z,35.92
2023-05-21T18:27:40.785Z,35.95
2023-05-21T18:30:08.672Z,35.90
2023-05-21T18:32:38.940Z,36.05
2023-05-21T18:35:11.181Z,36.01
2023-05-21T18:37:41.676Z,36.06
2023-05-21T18:40:09.478Z,36.05
2023-05-21T18:42:36.598Z,36.21
2023-05-21T18:45:08.526Z,36.13
2023-05-21T18:47:35.989Z,36.30
2023-05-21T18:50:03.403Z,36.30
2023-05-21T18:52:30.526Z,36.30
2023-05-21T18:54:57.632Z,36.54
2023-05-21T18:57:24.827Z,36.40
2023-05-21T18:59:51.969Z,36.53
2023-05-21T19:02:19.258Z,36.66
2023-05-21T19:04:46.636Z,36.76
2023-05-21T19:07:15.953Z,36.79
2023-05-21T19:09:43.113Z,36.77
2023-05-21T19:12:10.309Z,36.94
2023-05-21T19:14:37.754Z,37.07
2023-05-21T19:17:05.342Z,37.15
2023-05-21T19:19:32.519Z,37.22
2023-05-21T19:21:59.791Z,37.34
2023-05-21T19:24:26.897Z,37.34
2023-05-21T19:26:54.157Z,37.49
2023-05-21T19:29:21.663Z,37.56
2023-05-21T19:31:48.948Z,37.64
2023-05-21T19:34:16.458Z,37.77
2023-05-21T19:36:52.896Z,37.74
2023-05-21T19:39:21.247Z,37.88
2023-05-21T19:41:48.538Z,37.89
2023-05-21T19:44:15.739Z,37.98
2023-05-21T19:46:42.939Z,38.16
2023-05-21T19:49:14.693Z,38.17
2023-05-21T19:51:41.910Z,38.33
2023-05-21T19:54:09.076Z,38.27
2023-05-21T19:56:36.408Z,38.50
2023-05-21T19:59:04.121Z,38.53
2023-05-21T20:01:34.696Z,38.42
2023-05-21T20:04:02.310Z,38.60
2023-05-21T20:06:29.497Z,38.54
2023-05-21T20:08:56.717Z,38.69
2023-05-21T20:11:24.161Z,38.53
2023-05-21T20:13:51.460Z,38.71
2023-05-21T20:16:20.068Z,38.66
2023-05-21T20:18:47.611Z,38.58
2023-05-21T20:21:18.446Z,38.78
2023-05-21T20:23:46.143Z,38.83
2023-05-21T20:26:14.706Z,38.92
2023-05-21T20:28:42.006Z,39.00
2023-05-21T20:31:09.457Z,39.01
2023-05-21T20:33:42.464Z,39.20
2023-05-21T20:36:09.707Z,39.11
2023-05-21T20:38:38.291Z,39.15
2023-05-21T20:41:05.580Z,39.08
2023-05-21T20:43:33.074Z,39.19
2023-05-21T20:46:01.818Z,39.37
2023-05-21T20:48:30.052Z,39.30
2023-05-21T20:51:00.499Z,39.34
2023-05-21T20:53:27.873Z,39.52
2023-05-21T20:55:55.121Z,39.52
2023-05-21T20:58:24.239Z,39.43
2023-05-21T21:00:52.648Z,39.46
2023-05-21T21:03:21.798Z,39.73
2023-05-21T21:05:51.413Z,39.70
2023-05-21T21:08:18.713Z,39.75
2023-05-21T21:10:47.173Z,39.94
2023-05-21T21:13:15.060Z,39.91
2023-05-21T21:15:44.151Z,39.96
2023-05-21T21:18:12.709Z,39.89
2023-05-21T21:20:41.481Z,40.18
2023-05-21T21:23:09.395Z,40.00
2023-05-21T21:25:36.683Z,40.19
2023-05-21T21:28:04.122Z,40.08
2023-05-21T21:30:31.296Z,40.07
2023-05-21T21:32:58.415Z,40.27
2023-05-21T21:35:25.646Z,40.08
2023-05-21T21:37:52.874Z,40.49
2023-05-21T21:40:20.000Z,40.28
2023-05-21T21:42:47.368Z,40.24
2023-05-21T21:45:14.595Z,40.43
2023-05-21T21:47:41.791Z,40.51
2023-05-21T21:50:09.325Z,40.74
2023-05-21T21:52:40.209Z,40.59
2023-05-21T21:55:11.308Z,40.52
2023-05-21T21:57:39.415Z,40.85
2023-05-21T22:00:15.896Z,40.64
2023-05-21T22:02:44.049Z,40.85
2023-05-21T22:05:14.886Z,40.87
2023-05-21T22:07:46.406Z,40.83
2023-05-21T22:10:15.306Z,41.02
2023-05-21T22:12:43.360Z,41.03
2023-05-21T22:15:27.620Z,41.10
2023-05-21T22:17:55.424Z,41.00
2023-05-21T22:20:23.429Z,40.85
2023-05-21T22:22:50.776Z,41.11
2023-05-21T22:25:18.607Z,41.11
2023-05-21T22:27:45.826Z,41.24
2023-05-21T22:30:13.232Z,41.11
2023-05-21T22:32:40.496Z,41.41
2023-05-21T22:35:08.508Z,41.21
2023-05-21T22:37:37.443Z,41.22
2023-05-21T22:40:08.587Z,41.20
2023-05-21T22:42:36.430Z,41.32
2023-05-21T22:45:04.036Z,41.53
2023-05-21T22:47:32.359Z,41.45
2023-05-21T22:50:00.847Z,41.60
2023-05-21T22:52:28.954Z,41.63
2023-05-21T22:54:57.999Z,41.60
2023-05-21T22:57:25.155Z,41.40
2023-05-21T22:59:52.428Z,41.71
2023-05-21T23:02:19.607Z,41.86
2023-05-21T23:04:48.531Z,41.88
2023-05-21T23:07:16.163Z,41.84
2023-05-21T23:09:43.427Z,42.04
2023-05-21T23:12:11.232Z,42.00
2023-05-21T23:14:38.430Z,42.09
2023-05-21T23:17:05.723Z,42.00
2023-05-21T23:19:33.048Z,42.01
2023-05-21T23:22:00.649Z,42.12
2023-05-21T23:24:29.572Z,42.22
2023-05-21T23:27:02.015Z,42.30
2023-05-21T23:29:30.476Z,42.22
2023-05-21T23:31:58.008Z,42.36
2023-05-21T23:34:25.739Z,42.17
2023-05-21T23:36:53.134Z,42.24
2023-05-21T23:39:21.071Z,42.29
2023-05-21T23:41:48.839Z,42.43
2023-05-21T23:44:16.280Z,42.62
2023-05-21T23:46:43.592Z,42.64
2023-05-21T23:49:10.747Z,42.45
2023-05-21T23:51:38.493Z,42.69
2023-05-21T23:54:05.791Z,42.69
2023-05-21T23:56:32.944Z,42.79
2023-05-21T23:59:00.168Z,42.68
